createdAt,value
2018-09-10T00:00:01.429Z,1.50
2018-09-10T00:02:30.173Z,2.98
2018-09-10T00:04:58.962Z,2.15
2018-09-10T00:07:27.706Z,4.62
2018-09-10T00:09:56.488Z,3.08
2018-09-10T00:12:25.409Z,2.45
2018-09-10T00:14:54.215Z,1.98
2018-09-10T00:17:23.212Z,5.10
2018-09-10T00:19:52.209Z,2.47
2018-09-10T00:22:20.934Z,3.10
2018-09-10T00:24:49.667Z,1.75
2018-09-10T00:27:18.370Z,1.62
2018-09-10T00:29:47.095Z,2.45
2018-09-10T00:32:15.815Z,2.40
2018-09-10T00:34:44.557Z,2.67
2018-09-10T00:37:13.275Z,2.47
2018-09-10T00:39:42.014Z,2.22
2018-09-10T00:42:10.747Z,3.75
2018-09-10T00:44:39.491Z,4.85
2018-09-10T00:47:08.218Z,2.58
2018-09-10T00:49:37.067Z,2.55
2018-09-10T00:52:05.800Z,1.90
2018-09-10T00:54:34.544Z,1.77
2018-09-10T00:57:03.388Z,2.52
2018-09-10T00:59:32.171Z,1.62
2018-09-10T01:02:00.866Z,1.47
2018-09-10T01:04:29.633Z,1.70
2018-09-10T01:06:58.414Z,1.40
2018-09-10T01:09:27.214Z,3.98
2018-09-10T01:11:56.003Z,2.12
2018-09-10T01:14:24.711Z,1.22
2018-09-10T01:16:53.561Z,2.15
2018-09-10T01:19:22.259Z,3.42
2018-09-10T01:21:51.035Z,3.95
2018-09-10T01:24:19.731Z,1.98
2018-09-10T01:26:48.444Z,1.87
2018-09-10T01:29:17.286Z,4.17
2018-09-10T01:31:46.020Z,2.42
2018-09-10T01:34:19.858Z,3.00
2018-09-10T01:36:48.566Z,2.52
2018-09-10T01:39:17.324Z,2.12
2018-09-10T01:41:46.070Z,2.33
2018-09-10T01:44:14.845Z,1.70
2018-09-10T01:46:43.566Z,2.25
2018-09-10T01:49:12.318Z,1.37
2018-09-10T01:51:41.340Z,1.77
2018-09-10T01:54:10.110Z,1.75
2018-09-10T01:56:38.844Z,2.98
2018-09-10T01:59:07.602Z,1.05
2018-09-10T02:01:36.310Z,1.92
2018-09-10T02:04:05.107Z,1.05
2018-09-10T02:06:33.825Z,1.75
2018-09-10T02:09:02.695Z,1.60
2018-09-10T02:11:31.542Z,2.65
2018-09-10T02:14:00.252Z,2.40
2018-09-10T02:16:29.032Z,0.80
2018-09-10T02:18:57.722Z,1.70
2018-09-10T02:21:26.491Z,4.67
2018-09-10T02:23:55.193Z,1.60
2018-09-10T02:26:23.890Z,2.15
2018-09-10T02:28:52.622Z,2.02
2018-09-10T02:31:21.376Z,1.90
2018-09-10T02:33:50.115Z,3.12
2018-09-10T02:36:18.936Z,1.92
2018-09-10T02:38:48.213Z,1.02
2018-09-10T02:41:16.973Z,2.10
2018-09-10T02:43:45.761Z,1.20
2018-09-10T02:46:14.693Z,1.42
2018-09-10T02:48:44.320Z,3.33
2018-09-10T02:51:12.979Z,1.35
2018-09-10T02:53:41.677Z,2.25
2018-09-10T02:56:10.456Z,2.45
2018-09-10T02:58:39.335Z,2.20
2018-09-10T03:01:08.058Z,1.82
2018-09-10T03:03:36.926Z,0.95
2018-09-10T03:06:05.873Z,1.30
2018-09-10T03:08:34.605Z,1.70
2018-09-10T03:11:03.355Z,1.65
2018-09-10T03:13:32.046Z,1.20
2018-09-10T03:16:00.825Z,2.37
2018-09-10T03:18:29.532Z,3.12
2018-09-10T03:20:58.284Z,2.50
2018-09-10T03:23:27.009Z,1.57
2018-09-10T03:25:55.768Z,1.32
2018-09-10T03:28:24.487Z,1.77
2018-09-10T03:30:53.265Z,1.15
2018-09-10T03:33:22.089Z,1.00
2018-09-10T03:35:50.769Z,1.10
2018-09-10T03:38:19.539Z,1.12
2018-09-10T03:40:48.729Z,1.77
2018-09-10T03:43:17.487Z,1.05
2018-09-10T03:45:46.204Z,2.17
2018-09-10T03:48:14.881Z,2.12
2018-09-10T03:50:43.649Z,1.70
2018-09-10T03:53:12.430Z,1.82
2018-09-10T03:55:41.157Z,1.15
2018-09-10T03:58:10.218Z,1.17
2018-09-10T04:00:38.950Z,0.95
2018-09-10T04:03:07.666Z,1.25
2018-09-10T04:05:36.426Z,2.22
2018-09-10T04:08:05.479Z,2.45
2018-09-10T04:10:34.524Z,1.67
2018-09-10T04:13:03.361Z,1.72
2018-09-10T04:15:32.416Z,1.65
2018-09-10T04:18:01.194Z,1.52
2018-09-10T04:20:29.909Z,1.62
2018-09-10T04:22:58.849Z,7.50
2018-09-10T04:25:27.591Z,1.57
2018-09-10T04:27:56.337Z,2.60
2018-09-10T04:30:25.405Z,1.90
2018-09-10T04:32:54.338Z,1.92
2018-09-10T04:35:23.391Z,3.52
2018-09-10T04:37:52.277Z,2.85
2018-09-10T04:40:21.047Z,2.08
2018-09-10T04:42:49.966Z,2.85
2018-09-10T04:45:18.670Z,1.47
2018-09-10T04:47:47.401Z,2.08
2018-09-10T04:50:16.145Z,1.98
2018-09-10T04:52:44.868Z,2.50
2018-09-10T04:55:13.630Z,1.92
2018-09-10T04:57:49.749Z,2.37
2018-09-10T05:00:18.667Z,2.08
2018-09-10T05:02:47.437Z,2.40
2018-09-10T05:05:16.240Z,1.45
2018-09-10T05:07:45.002Z,1.67
2018-09-10T05:10:13.764Z,1.62
2018-09-10T05:12:43.482Z,1.50
2018-09-10T05:15:12.566Z,2.22
2018-09-10T05:17:41.473Z,1.98
2018-09-10T05:20:10.406Z,1.40
2018-09-10T05:22:39.163Z,4.08
2018-09-10T05:25:07.886Z,4.25
2018-09-10T05:27:36.641Z,1.40
2018-09-10T05:30:05.625Z,1.75
2018-09-10T05:32:34.378Z,1.98
2018-09-10T05:35:03.130Z,1.82
2018-09-10T05:37:31.882Z,2.10
2018-09-10T05:40:00.647Z,3.40
2018-09-10T05:42:29.399Z,2.33
2018-09-10T05:44:58.121Z,2.17
2018-09-10T05:47:26.928Z,5.78
2018-09-10T05:49:55.681Z,2.25
2018-09-10T05:52:24.406Z,4.47
2018-09-10T05:54:53.129Z,3.40
2018-09-10T05:57:21.948Z,2.45
2018-09-10T05:59:50.694Z,3.20
2018-09-10T06:02:19.447Z,3.47
2018-09-10T06:04:48.219Z,6.05
2018-09-10T06:07:17.010Z,4.90
2018-09-10T06:09:45.775Z,5.20
2018-09-10T06:12:14.508Z,8.03
2018-09-10T06:14:43.178Z,6.37
2018-09-10T06:17:11.911Z,9.93
2018-09-10T06:19:40.664Z,10.30
2018-09-10T06:22:09.416Z,10.85
2018-09-10T06:24:38.168Z,14.25
2018-09-10T06:27:06.943Z,8.18
2018-09-10T06:29:35.679Z,11.75
2018-09-10T06:32:04.444Z,8.95
2018-09-10T06:34:33.178Z,7.37
2018-09-10T06:37:01.931Z,9.38
2018-09-10T06:39:30.676Z,14.20
2018-09-10T06:41:59.453Z,11.10
2018-09-10T06:44:28.164Z,11.60
2018-09-10T06:46:56.916Z,9.08
2018-09-10T06:49:25.604Z,7.75
2018-09-10T06:51:54.368Z,6.60
2018-09-10T06:54:23.073Z,7.58
2018-09-10T06:56:51.803Z,5.87
2018-09-10T06:59:20.524Z,5.70
2018-09-10T07:01:49.338Z,6.33
2018-09-10T07:04:18.215Z,7.92
2018-09-10T07:06:46.990Z,8.08
2018-09-10T07:09:15.759Z,6.42
2018-09-10T07:11:44.468Z,7.28
2018-09-10T07:14:13.222Z,5.67
2018-09-10T07:16:42.005Z,4.95
2018-09-10T07:19:10.781Z,8.15
2018-09-10T07:21:39.525Z,7.78
2018-09-10T07:24:08.269Z,5.20
2018-09-10T07:26:36.994Z,6.08
2018-09-10T07:29:05.700Z,4.37
2018-09-10T07:31:34.504Z,5.55
2018-09-10T07:34:03.235Z,4.37
2018-09-10T07:36:32.045Z,6.25
2018-09-10T07:39:00.773Z,3.72
2018-09-10T07:41:29.545Z,5.80
2018-09-10T07:43:58.471Z,6.20
2018-09-10T07:46:27.088Z,5.03
2018-09-10T07:48:55.876Z,5.03
2018-09-10T07:51:24.629Z,3.12
2018-09-10T07:53:53.378Z,4.60
2018-09-10T07:56:22.131Z,5.35
2018-09-10T07:58:50.886Z,3.45
2018-09-10T08:01:19.647Z,3.33
2018-09-10T08:03:48.437Z,3.77
2018-09-10T08:06:17.199Z,3.37
2018-09-10T08:08:45.947Z,3.70
2018-09-10T08:11:15.237Z,4.50
2018-09-10T08:13:43.986Z,1.85
2018-09-10T08:16:12.772Z,4.30
2018-09-10T08:18:41.528Z,4.90
2018-09-10T08:21:10.266Z,2.58
2018-09-10T08:23:39.000Z,3.77
2018-09-10T08:26:07.764Z,2.45
2018-09-10T08:28:36.565Z,2.60
2018-09-10T08:31:05.418Z,4.53
2018-09-10T08:33:34.200Z,2.55
2018-09-10T08:36:03.044Z,1.75
2018-09-10T08:38:31.836Z,2.80
2018-09-10T08:41:00.638Z,2.33
2018-09-10T08:43:29.376Z,4.75
2018-09-10T08:45:58.070Z,3.30
2018-09-10T08:48:26.849Z,4.60
2018-09-10T08:50:55.556Z,2.90
2018-09-10T08:53:24.300Z,4.05
2018-09-10T08:55:53.362Z,3.52
2018-09-10T08:58:22.006Z,1.85
2018-09-10T09:00:50.754Z,2.65
2018-09-10T09:03:19.515Z,1.60
2018-09-10T09:05:48.307Z,2.42
2018-09-10T09:08:17.033Z,1.50
2018-09-10T09:10:45.874Z,2.75
2018-09-10T09:13:14.617Z,3.05
2018-09-10T09:15:43.478Z,2.20
2018-09-10T09:18:12.238Z,3.65
2018-09-10T09:20:40.972Z,4.10
2018-09-10T09:23:09.833Z,1.77
2018-09-10T09:25:38.598Z,2.33
2018-09-10T09:28:07.294Z,3.17
2018-09-10T09:30:36.120Z,2.12
2018-09-10T09:33:05.171Z,2.02
2018-09-10T09:35:39.254Z,2.52
2018-09-10T09:38:13.158Z,2.30
2018-09-10T09:40:47.170Z,1.60
2018-09-10T09:43:21.025Z,1.40
2018-09-10T09:45:54.894Z,2.33
2018-09-10T09:48:23.797Z,1.50
2018-09-10T09:50:52.567Z,3.15
2018-09-10T09:53:21.365Z,2.77
2018-09-10T09:55:50.096Z,2.83
2018-09-10T09:58:18.885Z,2.22
2018-09-10T10:00:56.861Z,2.52
2018-09-10T10:03:30.861Z,1.65
2018-09-10T10:05:59.679Z,1.67
2018-09-10T10:08:28.418Z,1.98
2018-09-10T10:10:57.178Z,1.62
2018-09-10T10:13:25.892Z,1.90
2018-09-10T10:15:55.267Z,3.05
2018-09-10T10:18:23.982Z,2.22
2018-09-10T10:20:52.731Z,3.22
2018-09-10T10:23:21.690Z,1.98
2018-09-10T10:25:50.511Z,1.22
2018-09-10T10:28:19.240Z,1.00
2018-09-10T10:30:48.065Z,0.98
2018-09-10T10:33:16.787Z,1.35
2018-09-10T10:35:45.530Z,1.92
2018-09-10T10:38:14.261Z,1.32
2018-09-10T10:40:43.013Z,1.95
2018-09-10T10:43:11.812Z,2.17
2018-09-10T10:45:40.587Z,1.67
2018-09-10T10:48:09.336Z,1.87
2018-09-10T10:50:38.152Z,1.67
2018-09-10T10:53:06.930Z,1.52
2018-09-10T10:55:36.730Z,1.35
2018-09-10T10:58:05.909Z,1.90
2018-09-10T11:00:34.669Z,1.77
2018-09-10T11:03:03.741Z,1.42
2018-09-10T11:05:32.538Z,1.62
2018-09-10T11:08:01.283Z,1.80
2018-09-10T11:10:30.023Z,1.22
2018-09-10T11:12:58.752Z,1.35
2018-09-10T11:15:27.480Z,1.75
2018-09-10T11:17:56.273Z,1.52
2018-09-10T11:20:25.058Z,2.98
2018-09-10T11:22:53.796Z,1.57
2018-09-10T11:25:22.567Z,1.40
2018-09-10T11:27:51.533Z,4.05
2018-09-10T11:30:20.266Z,1.50
2018-09-10T11:32:49.060Z,3.30
2018-09-10T11:35:17.746Z,1.77
2018-09-10T11:37:46.469Z,2.05
2018-09-10T11:40:15.306Z,1.75
2018-09-10T11:42:44.063Z,1.00
2018-09-10T11:45:12.854Z,1.25
2018-09-10T11:47:41.555Z,1.10
2018-09-10T11:50:10.267Z,1.52
2018-09-10T11:52:39.015Z,2.12
2018-09-10T11:55:07.806Z,0.80
2018-09-10T11:57:36.643Z,2.15
2018-09-10T12:00:05.679Z,1.65
2018-09-10T12:02:34.400Z,1.62
2018-09-10T12:05:03.179Z,1.65
2018-09-10T12:07:31.970Z,1.75
2018-09-10T12:10:00.715Z,1.50
2018-09-10T12:12:29.429Z,1.32
2018-09-10T12:14:58.262Z,1.40
2018-09-10T12:17:27.210Z,2.00
2018-09-10T12:19:56.016Z,1.25
2018-09-10T12:22:24.961Z,1.02
2018-09-10T12:24:53.697Z,1.55
2018-09-10T12:27:22.462Z,2.25
2018-09-10T12:29:51.223Z,1.30
2018-09-10T12:32:20.078Z,1.75
2018-09-10T12:34:48.809Z,1.37
2018-09-10T12:37:17.513Z,1.65
2018-09-10T12:39:46.318Z,2.27
2018-09-10T12:42:14.986Z,0.80
2018-09-10T12:44:43.786Z,1.20
2018-09-10T12:47:12.483Z,1.92
2018-09-10T12:49:41.167Z,1.57
2018-09-10T12:52:09.881Z,1.57
2018-09-10T12:54:38.602Z,1.72
2018-09-10T12:57:07.453Z,1.67
2018-09-10T12:59:36.301Z,1.20
2018-09-10T13:02:05.095Z,2.35
2018-09-10T13:04:33.838Z,2.15
2018-09-10T13:07:04.014Z,1.90
2018-09-10T13:09:32.774Z,1.57
2018-09-10T13:12:01.661Z,1.77
2018-09-10T13:14:30.399Z,1.55
2018-09-10T13:16:59.103Z,1.95
2018-09-10T13:19:27.818Z,1.42
2018-09-10T13:21:56.558Z,1.30
2018-09-10T13:24:25.289Z,2.17
2018-09-10T13:26:54.237Z,1.65
2018-09-10T13:29:22.946Z,1.75
2018-09-10T13:31:51.681Z,1.15
2018-09-10T13:34:20.416Z,1.35
2018-09-10T13:36:49.111Z,3.22
2018-09-10T13:39:17.866Z,1.60
2018-09-10T13:41:46.619Z,1.25
2018-09-10T13:44:15.316Z,1.77
2018-09-10T13:46:44.061Z,2.05
2018-09-10T13:49:12.763Z,1.17
2018-09-10T13:51:41.501Z,2.80
2018-09-10T13:54:10.254Z,1.60
2018-09-10T13:56:38.920Z,1.72
2018-09-10T13:59:07.967Z,1.80
2018-09-10T14:01:36.726Z,1.87
2018-09-10T14:04:05.952Z,1.80
2018-09-10T14:06:34.626Z,1.37
2018-09-10T14:09:03.463Z,1.07
2018-09-10T14:11:32.190Z,1.47
2018-09-10T14:14:00.937Z,1.37
2018-09-10T14:16:29.618Z,2.65
2018-09-10T14:18:58.398Z,2.52
2018-09-10T14:21:27.100Z,2.22
2018-09-10T14:23:55.890Z,2.12
2018-09-10T14:26:24.649Z,1.32
2018-09-10T14:28:53.351Z,3.27
2018-09-10T14:31:22.043Z,4.95
2018-09-10T14:33:50.780Z,1.92
2018-09-10T14:36:19.547Z,1.70
2018-09-10T14:38:48.325Z,2.80
2018-09-10T14:41:17.040Z,1.90
2018-09-10T14:43:45.801Z,2.17
2018-09-10T14:46:15.471Z,2.12
2018-09-10T14:48:44.148Z,2.95
2018-09-10T14:51:12.894Z,2.52
2018-09-10T14:53:41.643Z,1.57
2018-09-10T14:56:10.388Z,3.10
2018-09-10T14:58:39.169Z,2.47
2018-09-10T15:01:07.876Z,2.58
2018-09-10T15:03:36.632Z,2.15
2018-09-10T15:06:05.529Z,2.70
2018-09-10T15:08:34.277Z,3.72
2018-09-10T15:11:03.003Z,1.70
2018-09-10T15:13:31.758Z,2.08
2018-09-10T15:16:00.488Z,1.85
2018-09-10T15:18:29.394Z,1.85
2018-09-10T15:20:58.084Z,3.47
2018-09-10T15:23:26.888Z,1.85
2018-09-10T15:25:55.638Z,3.00
2018-09-10T15:28:24.494Z,4.08
2018-09-10T15:30:53.259Z,2.62
2018-09-10T15:33:21.971Z,2.17
2018-09-10T15:35:50.668Z,4.17
2018-09-10T15:38:19.411Z,1.70
2018-09-10T15:40:48.283Z,3.15
2018-09-10T15:43:17.062Z,5.03
2018-09-10T15:45:45.757Z,2.52
2018-09-10T15:48:14.534Z,2.20
2018-09-10T15:50:43.298Z,3.80
2018-09-10T15:53:12.088Z,2.58
2018-09-10T15:55:40.856Z,2.50
2018-09-10T15:58:09.633Z,2.72
2018-09-10T16:00:38.375Z,1.98
2018-09-10T16:03:07.199Z,2.45
2018-09-10T16:05:35.921Z,2.80
2018-09-10T16:08:04.649Z,3.55
2018-09-10T16:10:33.477Z,2.37
2018-09-10T16:13:02.221Z,2.77
2018-09-10T16:15:31.083Z,3.45
2018-09-10T16:17:59.808Z,1.60
2018-09-10T16:20:28.576Z,3.98
2018-09-10T16:22:57.360Z,3.33
2018-09-10T16:25:26.143Z,2.87
2018-09-10T16:27:54.873Z,3.40
2018-09-10T16:30:23.689Z,3.33
2018-09-10T16:32:52.516Z,5.62
2018-09-10T16:35:21.225Z,3.83
2018-09-10T16:37:50.149Z,2.40
2018-09-10T16:40:19.114Z,1.98
2018-09-10T16:42:47.853Z,2.15
2018-09-10T16:45:16.655Z,4.85
2018-09-10T16:47:45.378Z,3.05
2018-09-10T16:50:14.174Z,3.05
2018-09-10T16:52:42.913Z,3.30
2018-09-10T16:55:11.660Z,3.20
2018-09-10T16:57:40.423Z,3.05
2018-09-10T17:00:09.223Z,3.75
2018-09-10T17:02:38.201Z,2.37
2018-09-10T17:05:07.079Z,3.47
2018-09-10T17:07:36.029Z,3.15
2018-09-10T17:10:04.899Z,3.50
2018-09-10T17:12:33.759Z,3.30
2018-09-10T17:15:02.750Z,1.80
2018-09-10T17:17:31.415Z,3.60
2018-09-10T17:20:00.212Z,4.37
2018-09-10T17:22:28.999Z,2.90
2018-09-10T17:24:57.772Z,2.22
2018-09-10T17:27:26.483Z,2.50
2018-09-10T17:29:55.212Z,2.47
2018-09-10T17:32:23.968Z,3.20
2018-09-10T17:34:52.722Z,2.22
2018-09-10T17:37:21.521Z,2.40
2018-09-10T17:39:50.384Z,2.37
2018-09-10T17:42:19.204Z,2.95
2018-09-10T17:44:48.003Z,3.70
2018-09-10T17:47:16.928Z,4.78
2018-09-10T17:49:45.547Z,4.00
2018-09-10T17:52:14.287Z,4.22
2018-09-10T17:54:43.064Z,4.10
2018-09-10T17:57:11.778Z,4.28
2018-09-10T17:59:40.508Z,9.95
2018-09-10T18:02:09.222Z,3.67
2018-09-10T18:04:37.995Z,5.47
2018-09-10T18:07:06.813Z,9.48
2018-09-10T18:09:35.573Z,7.92
2018-09-10T18:12:05.056Z,6.35
2018-09-10T18:14:33.802Z,7.10
2018-09-10T18:17:02.999Z,5.67
2018-09-10T18:19:31.738Z,5.87
2018-09-10T18:22:00.458Z,6.47
2018-09-10T18:24:29.216Z,4.55
2018-09-10T18:26:58.037Z,6.75
2018-09-10T18:29:26.707Z,4.53
2018-09-10T18:31:55.577Z,4.22
2018-09-10T18:34:24.308Z,5.67
2018-09-10T18:36:53.046Z,5.05
2018-09-10T18:39:21.796Z,8.15
2018-09-10T18:41:50.601Z,2.87
2018-09-10T18:44:19.449Z,8.10
2018-09-10T18:46:48.164Z,5.60
2018-09-10T18:49:17.024Z,3.12
2018-09-10T18:51:45.709Z,3.20
2018-09-10T18:54:14.442Z,5.67
2018-09-10T18:56:43.222Z,3.92
2018-09-10T18:59:12.065Z,4.47
2018-09-10T19:01:40.875Z,6.08
2018-09-10T19:04:09.628Z,3.05
2018-09-10T19:06:38.431Z,4.15
2018-09-10T19:09:09.618Z,4.85
2018-09-10T19:11:38.523Z,6.17
2018-09-10T19:14:07.396Z,6.08
2018-09-10T19:16:36.345Z,3.10
2018-09-10T19:19:05.331Z,3.52
2018-09-10T19:21:34.134Z,3.42
2018-09-10T19:24:03.332Z,4.75
2018-09-10T19:26:32.090Z,2.92
2018-09-10T19:29:00.923Z,3.33
2018-09-10T19:31:29.743Z,3.80
2018-09-10T19:33:58.523Z,2.27
2018-09-10T19:36:27.327Z,3.10
2018-09-10T19:38:56.048Z,4.00
2018-09-10T19:41:24.770Z,3.02
2018-09-10T19:43:53.546Z,3.62
2018-09-10T19:46:22.243Z,2.77
2018-09-10T19:48:50.976Z,3.27
2018-09-10T19:51:20.018Z,2.42
2018-09-10T19:53:48.792Z,2.62
2018-09-10T19:56:17.516Z,2.47
2018-09-10T19:58:46.250Z,2.25
2018-09-10T20:01:15.035Z,1.67
2018-09-10T20:03:43.788Z,4.10
2018-09-10T20:06:12.574Z,6.17
2018-09-10T20:08:41.307Z,4.42
2018-09-10T20:11:10.148Z,4.85
2018-09-10T20:13:39.066Z,3.30
2018-09-10T20:16:07.872Z,3.50
2018-09-10T20:18:36.955Z,3.50
2018-09-10T20:21:05.939Z,5.00
2018-09-10T20:23:34.670Z,7.87
2018-09-10T20:26:03.688Z,5.25
2018-09-10T20:28:32.530Z,2.52
2018-09-10T20:31:02.577Z,5.33
2018-09-10T20:33:35.471Z,6.35
2018-09-10T20:36:04.438Z,4.47
2018-09-10T20:38:33.237Z,3.50
2018-09-10T20:41:02.020Z,4.53
2018-09-10T20:43:31.317Z,6.60
2018-09-10T20:46:00.092Z,6.03
2018-09-10T20:48:28.819Z,3.72
2018-09-10T20:50:58.383Z,4.80
2018-09-10T20:53:27.725Z,3.17
2018-09-10T20:55:56.489Z,5.05
2018-09-10T20:58:25.308Z,4.60
2018-09-10T21:00:54.056Z,3.50
2018-09-10T21:03:22.828Z,4.30
2018-09-10T21:05:51.876Z,3.80
2018-09-10T21:08:20.669Z,4.85
2018-09-10T21:10:50.145Z,2.20
2018-09-10T21:13:18.891Z,2.92
2018-09-10T21:15:47.602Z,5.00
2018-09-10T21:18:16.296Z,4.10
2018-09-10T21:20:45.073Z,4.28
2018-09-10T21:23:13.735Z,3.55
2018-09-10T21:25:42.583Z,3.72
2018-09-10T21:28:11.356Z,3.00
2018-09-10T21:30:40.081Z,4.95
2018-09-10T21:33:08.799Z,3.10
2018-09-10T21:35:37.595Z,3.70
2018-09-10T21:38:06.436Z,3.10
2018-09-10T21:40:35.194Z,3.80
2018-09-10T21:43:04.169Z,2.67
2018-09-10T21:45:32.997Z,3.30
2018-09-10T21:48:01.700Z,1.95
2018-09-10T21:50:30.642Z,2.67
2018-09-10T21:52:59.554Z,6.22
2018-09-10T21:55:28.623Z,4.22
2018-09-10T21:57:57.345Z,2.52
2018-09-10T22:00:26.108Z,2.02
2018-09-10T22:03:11.090Z,3.40
2018-09-10T22:05:39.910Z,2.45
2018-09-10T22:08:08.726Z,1.70
2018-09-10T22:10:37.639Z,3.20
2018-09-10T22:13:06.385Z,4.40
2018-09-10T22:15:35.169Z,2.65
2018-09-10T22:18:03.989Z,3.33
2018-09-10T22:20:32.720Z,1.85
2018-09-10T22:23:01.513Z,2.00
2018-09-10T22:25:30.202Z,3.35
2018-09-10T22:27:59.082Z,4.15
2018-09-10T22:30:27.799Z,3.58
2018-09-10T22:32:56.517Z,3.67
2018-09-10T22:35:25.272Z,4.08
2018-09-10T22:37:54.002Z,3.62
2018-09-10T22:40:22.769Z,1.92
2018-09-10T22:42:51.542Z,4.22
2018-09-10T22:45:20.609Z,3.22
2018-09-10T22:47:49.393Z,2.08
2018-09-10T22:50:18.090Z,4.22
2018-09-10T22:52:46.795Z,2.58
2018-09-10T22:55:15.567Z,2.72
2018-09-10T22:57:44.243Z,2.87
2018-09-10T23:00:12.930Z,1.57
2018-09-10T23:02:41.686Z,3.98
2018-09-10T23:05:10.398Z,3.80
2018-09-10T23:07:39.126Z,2.95
2018-09-10T23:10:07.921Z,2.80
2018-09-10T23:12:36.613Z,2.60
2018-09-10T23:15:05.867Z,2.50
2018-09-10T23:17:34.604Z,1.87
2018-09-10T23:20:03.299Z,2.90
2018-09-10T23:22:31.966Z,1.70
2018-09-10T23:25:00.629Z,1.40
2018-09-10T23:27:29.454Z,2.92
2018-09-10T23:29:58.259Z,2.55
2018-09-10T23:32:26.938Z,2.08
2018-09-10T23:34:55.630Z,3.77
2018-09-10T23:37:24.319Z,1.62
2018-09-10T23:39:53.056Z,3.75
2018-09-10T23:42:21.962Z,2.98
2018-09-10T23:44:51.010Z,1.90
2018-09-10T23:47:19.870Z,2.08
2018-09-10T23:49:48.537Z,2.45
2018-09-10T23:52:17.346Z,2.35
2018-09-10T23:54:46.074Z,3.08
2018-09-10T23:57:14.753Z,1.92
2018-09-10T23:59:43.432Z,2.10
